Portada
METAR-TAF:

METAR-TAF

Aeroports :

Vladivostok, Rússia

latitud: 43-07N, longitud: 131-56E, altitud: 184 m

Observació

L'informe es va fer fa 35 minuts, a les 09:30 UTC
Vent 8 kt del Nord/Nord-Est
Temperatura -9°C
Humitat 44%
Pressió 1025 hPa
Visibilitat 10 km o més

METAR: UHWW 240930Z 03004MPS 9999 NSC M09/M19 Q1025 R25L/0///70 NOSIG RMK QFE767

Hora: 20:05 (10:05 UTC)

Pronòstic

L'informe es va fer fa 2 hores i 10 minuts, a les 07:55 UTC
Pronòstic vàlid del 24 a les 09 UTC al 25 a les 09 UTC
Vent 6 kt del Nord/Nord-Est
Visibilitat 10 km o més
Cel ennuvolat a una alçada de 3000 ft

TAF: UHWW 240755Z 2409/2509 02003MPS 9999 BKN030

Observacions i pronòstics meteorològics de més de 4000 aeroports (METAR i TAF).

Les estacions disponibles són els punts grocs i vermells al mapa.

Posi el ratolí al punt desitjat per veure el nom de l'estació.

Feu clic per veure les observacions i els pronòstics meteorològics.

Per canviar el mapa: feu clic els botons verds amb una creu de color negre per apropar; al botó verd amb un guió per allunyar la imatge; o en les fletxes verdes per a mapes adjacents.


METAR-TAF: